sensor_id;sensor_type;location;lat;lon;timestamp;pressure;altitude;pressure_sealevel;temperature
71807;BMP280;59655;42.590;23.364;2023-10-08T00:01:52;91941.53;;;13.19
71807;BMP280;59655;42.590;23.364;2023-10-08T00:04:21;91937.88;;;13.07
71807;BMP280;59655;42.590;23.364;2023-10-08T00:06:46;91930.56;;;13.07
71807;BMP280;59655;42.590;23.364;2023-10-08T00:09:13;91940.88;;;13.11
71807;BMP280;59655;42.590;23.364;2023-10-08T00:11:40;91926.63;;;13.16
71807;BMP280;59655;42.590;23.364;2023-10-08T00:14:06;91926.81;;;13.18
71807;BMP280;59655;42.590;23.364;2023-10-08T00:16:36;91925.97;;;13.08
71807;BMP280;59655;42.590;23.364;2023-10-08T00:19:05;91923.16;;;13.06
71807;BMP280;59655;42.590;23.364;2023-10-08T00:21:34;91918.56;;;12.99
71807;BMP280;59655;42.590;23.364;2023-10-08T00:24:01;91914.13;;;12.93
71807;BMP280;59655;42.590;23.364;2023-10-08T00:26:30;91916.97;;;12.88
71807;BMP280;59655;42.590;23.364;2023-10-08T00:29:01;91918.09;;;12.85
71807;BMP280;59655;42.590;23.364;2023-10-08T00:31:48;91917.91;;;12.75
71807;BMP280;59655;42.590;23.364;2023-10-08T00:34:18;91908.31;;;12.80
71807;BMP280;59655;42.590;23.364;2023-10-08T00:36:46;91904.97;;;12.79
71807;BMP280;59655;42.590;23.364;2023-10-08T00:39:13;91913.31;;;12.76
71807;BMP280;59655;42.590;23.364;2023-10-08T00:41:46;91910.47;;;12.73
71807;BMP280;59655;42.590;23.364;2023-10-08T00:44:13;91897.69;;;12.80
71807;BMP280;59655;42.590;23.364;2023-10-08T00:46:41;91899.13;;;12.73
71807;BMP280;59655;42.590;23.364;2023-10-08T00:49:15;91899.13;;;12.73
71807;BMP280;59655;42.590;23.364;2023-10-08T00:51:46;91905.31;;;12.76
71807;BMP280;59655;42.590;23.364;2023-10-08T00:54:13;91893.03;;;12.80
71807;BMP280;59655;42.590;23.364;2023-10-08T00:56:46;91889.81;;;12.89
71807;BMP280;59655;42.590;23.364;2023-10-08T00:59:14;91892.28;;;12.87
71807;BMP280;59655;42.590;23.364;2023-10-08T01:01:44;91895.00;;;12.80
71807;BMP280;59655;42.590;23.364;2023-10-08T01:04:25;91888.28;;;12.79
71807;BMP280;59655;42.590;23.364;2023-10-08T01:06:58;91890.94;;;12.79
71807;BMP280;59655;42.590;23.364;2023-10-08T01:09:37;91897.84;;;12.74
71807;BMP280;59655;42.590;23.364;2023-10-08T01:12:22;91898.56;;;12.67
71807;BMP280;59655;42.590;23.364;2023-10-08T01:14:49;91887.75;;;12.72
71807;BMP280;59655;42.590;23.364;2023-10-08T01:17:22;91886.19;;;12.62
71807;BMP280;59655;42.590;23.364;2023-10-08T01:19:52;91886.72;;;12.60
71807;BMP280;59655;42.590;23.364;2023-10-08T01:22:33;91886.00;;;12.60
71807;BMP280;59655;42.590;23.364;2023-10-08T01:24:58;91879.59;;;12.63
71807;BMP280;59655;42.590;23.364;2023-10-08T01:27:30;91889.94;;;12.59
71807;BMP280;59655;42.590;23.364;2023-10-08T01:30:00;91879.41;;;12.68
71807;BMP280;59655;42.590;23.364;2023-10-08T01:32:37;91878.72;;;12.68
71807;BMP280;59655;42.590;23.364;2023-10-08T01:35:03;91878.56;;;12.66
71807;BMP280;59655;42.590;23.364;2023-10-08T01:37:30;91872.88;;;12.62
71807;BMP280;59655;42.590;23.364;2023-10-08T01:40:00;91879.59;;;12.63
71807;BMP280;59655;42.590;23.364;2023-10-08T01:42:29;91874.28;;;12.63
71807;BMP280;59655;42.590;23.364;2023-10-08T01:44:57;91876.63;;;12.59
71807;BMP280;59655;42.590;23.364;2023-10-08T01:47:23;91878.09;;;12.44
71807;BMP280;59655;42.590;23.364;2023-10-08T01:49:50;91878.31;;;12.31
71807;BMP280;59655;42.590;23.364;2023-10-08T01:52:18;91878.66;;;12.20
71807;BMP280;59655;42.590;23.364;2023-10-08T01:54:47;91880.78;;;12.29
71807;BMP280;59655;42.590;23.364;2023-10-08T01:57:14;91876.16;;;12.37
71807;BMP280;59655;42.590;23.364;2023-10-08T01:59:40;91869.75;;;12.40
71807;BMP280;59655;42.590;23.364;2023-10-08T02:02:05;91877.00;;;12.40
71807;BMP280;59655;42.590;23.364;2023-10-08T02:04:34;91878.13;;;12.21
71807;BMP280;59655;42.590;23.364;2023-10-08T02:07:01;91875.81;;;12.25
71807;BMP280;59655;42.590;23.364;2023-10-08T02:09:27;91865.53;;;12.30
71807;BMP280;59655;42.590;23.364;2023-10-08T02:11:52;91876.16;;;12.30
71807;BMP280;59655;42.590;23.364;2023-10-08T02:14:22;91867.47;;;12.37
71807;BMP280;59655;42.590;23.364;2023-10-08T02:16:49;91870.66;;;12.35
71807;BMP280;59655;42.590;23.364;2023-10-08T02:19:15;91869.75;;;12.33
71807;BMP280;59655;42.590;23.364;2023-10-08T02:21:44;91871.88;;;12.26
71807;BMP280;59655;42.590;23.364;2023-10-08T02:24:11;91870.16;;;12.21
71807;BMP280;59655;42.590;23.364;2023-10-08T02:26:38;91864.47;;;12.25
71807;BMP280;59655;42.590;23.364;2023-10-08T02:29:04;91865.69;;;12.24
71807;BMP280;59655;42.590;23.364;2023-10-08T02:31:37;91858.75;;;12.28
71807;BMP280;59655;42.590;23.364;2023-10-08T02:34:07;91855.22;;;12.26
71807;BMP280;59655;42.590;23.364;2023-10-08T02:36:37;91854.38;;;12.23
71807;BMP280;59655;42.590;23.364;2023-10-08T02:39:03;91854.88;;;12.22
71807;BMP280;59655;42.590;23.364;2023-10-08T02:41:42;91853.09;;;12.24
71807;BMP280;59655;42.590;23.364;2023-10-08T02:44:10;91851.88;;;12.18
71807;BMP280;59655;42.590;23.364;2023-10-08T02:46:41;91851.16;;;12.25
71807;BMP280;59655;42.590;23.364;2023-10-08T02:49:10;91853.97;;;12.35
71807;BMP280;59655;42.590;23.364;2023-10-08T02:51:40;91853.25;;;12.26
71807;BMP280;59655;42.590;23.364;2023-10-08T02:54:07;91845.84;;;12.25
71807;BMP280;59655;42.590;23.364;2023-10-08T02:56:34;91846.72;;;12.27
71807;BMP280;59655;42.590;23.364;2023-10-08T02:58:59;91852.94;;;12.22
71807;BMP280;59655;42.590;23.364;2023-10-08T03:01:26;91859.84;;;12.25
71807;BMP280;59655;42.590;23.364;2023-10-08T03:03:51;91860.53;;;12.26
71807;BMP280;59655;42.590;23.364;2023-10-08T03:06:28;91859.47;;;12.37
71807;BMP280;59655;42.590;23.364;2023-10-08T03:08:57;91867.72;;;12.64
71807;BMP280;59655;42.590;23.364;2023-10-08T03:11:29;91860.94;;;12.70
71807;BMP280;59655;42.590;23.364;2023-10-08T03:13:54;91867.50;;;12.77
71807;BMP280;59655;42.590;23.364;2023-10-08T03:16:21;91861.88;;;13.06
71807;BMP280;59655;42.590;23.364;2023-10-08T03:18:53;91851.25;;;13.31
71807;BMP280;59655;42.590;23.364;2023-10-08T03:21:20;91850.47;;;13.63
71807;BMP280;59655;42.590;23.364;2023-10-08T03:23:46;91854.03;;;13.66
71807;BMP280;59655;42.590;23.364;2023-10-08T03:26:13;91847.81;;;13.63
71807;BMP280;59655;42.590;23.364;2023-10-08T03:29:01;91845.13;;;13.63
71807;BMP280;59655;42.590;23.364;2023-10-08T03:31:30;91841.59;;;13.60
71807;BMP280;59655;42.590;23.364;2023-10-08T03:34:15;91840.09;;;13.67
71807;BMP280;59655;42.590;23.364;2023-10-08T03:36:43;91840.31;;;13.69
71807;BMP280;59655;42.590;23.364;2023-10-08T03:39:13;91836.09;;;13.83
71807;BMP280;59655;42.590;23.364;2023-10-08T03:41:40;91835.31;;;13.91
71807;BMP280;59655;42.590;23.364;2023-10-08T03:44:06;91851.81;;;13.97
71807;BMP280;59655;42.590;23.364;2023-10-08T03:46:42;91837.63;;;14.29
71807;BMP280;59655;42.590;23.364;2023-10-08T03:49:11;91845.53;;;14.19
71807;BMP280;59655;42.590;23.364;2023-10-08T03:51:57;91839.25;;;14.07
71807;BMP280;59655;42.590;23.364;2023-10-08T03:54:23;91843.72;;;14.04
71807;BMP280;59655;42.590;23.364;2023-10-08T03:57:11;91829.47;;;14.10
71807;BMP280;59655;42.590;23.364;2023-10-08T03:59:50;91824.97;;;14.12
71807;BMP280;59655;42.590;23.364;2023-10-08T04:02:20;91829.25;;;14.07
71807;BMP280;59655;42.590;23.364;2023-10-08T04:04:58;91821.25;;;14.07
71807;BMP280;59655;42.590;23.364;2023-10-08T04:07:25;91830.53;;;14.06
71807;BMP280;59655;42.590;23.364;2023-10-08T04:10:27;91829.69;;;14.04
71807;BMP280;59655;42.590;23.364;2023-10-08T04:13:24;91816.56;;;13.98
71807;BMP280;59655;42.590;23.364;2023-10-08T04:15:50;91818.84;;;14.02
71807;BMP280;59655;42.590;23.364;2023-10-08T04:18:15;91818.66;;;14.00
71807;BMP280;59655;42.590;23.364;2023-10-08T04:20:42;91816.25;;;13.94
71807;BMP280;59655;42.590;23.364;2023-10-08T04:23:30;91809.34;;;13.91
71807;BMP280;59655;42.590;23.364;2023-10-08T04:25:56;91810.59;;;13.90
71807;BMP280;59655;42.590;23.364;2023-10-08T04:28:22;91807.91;;;13.90
71807;BMP280;59655;42.590;23.364;2023-10-08T04:30:52;91815.06;;;13.88
71807;BMP280;59655;42.590;23.364;2023-10-08T04:33:18;91822.50;;;13.72
71807;BMP280;59655;42.590;23.364;2023-10-08T04:35:45;91821.13;;;13.63
71807;BMP280;59655;42.590;23.364;2023-10-08T04:38:24;91825.69;;;13.53
71807;BMP280;59655;42.590;23.364;2023-10-08T04:40:54;91821.81;;;13.46
71807;BMP280;59655;42.590;23.364;2023-10-08T04:43:21;91818.47;;;13.38
71807;BMP280;59655;42.590;23.364;2023-10-08T04:45:59;91824.38;;;13.36
71807;BMP280;59655;42.590;23.364;2023-10-08T04:48:29;91820.13;;;13.33
71807;BMP280;59655;42.590;23.364;2023-10-08T04:50:58;91819.09;;;13.29
71807;BMP280;59655;42.590;23.364;2023-10-08T04:53:29;91819.97;;;13.31
71807;BMP280;59655;42.590;23.364;2023-10-08T04:56:01;91819.25;;;13.31
71807;BMP280;59655;42.590;23.364;2023-10-08T04:58:33;91820.88;;;13.26
71807;BMP280;59655;42.590;23.364;2023-10-08T05:01:01;91829.25;;;13.23
71807;BMP280;59655;42.590;23.364;2023-10-08T05:03:53;91830.13;;;13.25
71807;BMP280;59655;42.590;23.364;2023-10-08T05:06:31;91830.50;;;13.22
71807;BMP280;59655;42.590;23.364;2023-10-08T05:09:01;91821.09;;;13.21
71807;BMP280;59655;42.590;23.364;2023-10-08T05:11:35;91818.28;;;13.19
71807;BMP280;59655;42.590;23.364;2023-10-08T05:14:24;91823.97;;;13.15
71807;BMP280;59655;42.590;23.364;2023-10-08T05:19:48;91823.97;;;13.15
71807;BMP280;59655;42.590;23.364;2023-10-08T05:22:36;91840.56;;;13.06
71807;BMP280;59655;42.590;23.364;2023-10-08T05:25:02;91843.38;;;13.08
71807;BMP280;59655;42.590;23.364;2023-10-08T05:27:40;91843.19;;;13.13
71807;BMP280;59655;42.590;23.364;2023-10-08T05:30:12;91829.63;;;13.19
71807;BMP280;59655;42.590;23.364;2023-10-08T05:32:56;91831.22;;;13.22
71807;BMP280;59655;42.590;23.364;2023-10-08T05:35:40;91834.22;;;13.26
71807;BMP280;59655;42.590;23.364;2023-10-08T05:38:06;91833.28;;;13.31
71807;BMP280;59655;42.590;23.364;2023-10-08T05:40:51;91851.63;;;13.27
71807;BMP280;59655;42.590;23.364;2023-10-08T05:43:38;91841.59;;;13.35
71807;BMP280;59655;42.590;23.364;2023-10-08T05:46:06;91849.25;;;13.39
71807;BMP280;59655;42.590;23.364;2023-10-08T05:48:51;91855.59;;;13.44
71807;BMP280;59655;42.590;23.364;2023-10-08T05:51:49;91858.41;;;13.46
71807;BMP280;59655;42.590;23.364;2023-10-08T05:54:20;91851.69;;;13.45
71807;BMP280;59655;42.590;23.364;2023-10-08T05:59:44;91851.78;;;13.54
71807;BMP280;59655;42.590;23.364;2023-10-08T06:02:26;91852.13;;;13.58
71807;BMP280;59655;42.590;23.364;2023-10-08T06:05:08;91850.69;;;13.57
71807;BMP280;59655;42.590;23.364;2023-10-08T06:07:50;91861.13;;;13.63
71807;BMP280;59655;42.590;23.364;2023-10-08T06:10:29;91857.31;;;13.74
71807;BMP280;59655;42.590;23.364;2023-10-08T06:13:05;91856.94;;;13.77
71807;BMP280;59655;42.590;23.364;2023-10-08T06:15:56;91855.13;;;13.80
71807;BMP280;59655;42.590;23.364;2023-10-08T06:18:27;91853.31;;;13.82
71807;BMP280;59655;42.590;23.364;2023-10-08T06:20:53;91853.66;;;13.87
71807;BMP280;59655;42.590;23.364;2023-10-08T06:23:26;91856.50;;;13.89
71807;BMP280;59655;42.590;23.364;2023-10-08T06:25:53;91847.41;;;13.92
71807;BMP280;59655;42.590;23.364;2023-10-08T06:28:22;91858.22;;;13.94
71807;BMP280;59655;42.590;23.364;2023-10-08T06:30:53;91851.25;;;13.98
71807;BMP280;59655;42.590;23.364;2023-10-08T06:33:21;91854.06;;;14.00
71807;BMP280;59655;42.590;23.364;2023-10-08T06:35:56;91851.88;;;14.06
71807;BMP280;59655;42.590;23.364;2023-10-08T06:38:33;91845.22;;;14.15
71807;BMP280;59655;42.590;23.364;2023-10-08T06:40:59;91852.91;;;14.28
71807;BMP280;59655;42.590;23.364;2023-10-08T06:43:28;91859.13;;;14.31
71807;BMP280;59655;42.590;23.364;2023-10-08T06:45:54;91868.16;;;14.53
71807;BMP280;59655;42.590;23.364;2023-10-08T06:48:24;91866.88;;;14.71
71807;BMP280;59655;42.590;23.364;2023-10-08T06:50:52;91867.31;;;14.78
71807;BMP280;59655;42.590;23.364;2023-10-08T06:53:22;91852.63;;;14.69
71807;BMP280;59655;42.590;23.364;2023-10-08T06:55:48;91851.75;;;14.66
71807;BMP280;59655;42.590;23.364;2023-10-08T06:58:24;91851.94;;;14.68
71807;BMP280;59655;42.590;23.364;2023-10-08T07:00:50;91841.94;;;14.69
71807;BMP280;59655;42.590;23.364;2023-10-08T07:03:17;91834.28;;;15.00
71807;BMP280;59655;42.590;23.364;2023-10-08T07:05:47;91836.31;;;14.92
71807;BMP280;59655;42.590;23.364;2023-10-08T07:08:26;91839.63;;;15.00
71807;BMP280;59655;42.590;23.364;2023-10-08T07:10:53;91837.06;;;15.02
71807;BMP280;59655;42.590;23.364;2023-10-08T07:13:19;91838.47;;;15.03
71807;BMP280;59655;42.590;23.364;2023-10-08T07:15:51;91843.31;;;15.14
71807;BMP280;59655;42.590;23.364;2023-10-08T07:18:18;91851.34;;;15.14
71807;BMP280;59655;42.590;23.364;2023-10-08T07:20:52;91841.28;;;15.32
71807;BMP280;59655;42.590;23.364;2023-10-08T07:23:27;91836.19;;;15.27
71807;BMP280;59655;42.590;23.364;2023-10-08T07:26:01;91836.84;;;15.45
71807;BMP280;59655;42.590;23.364;2023-10-08T07:28:40;91827.56;;;15.65
71807;BMP280;59655;42.590;23.364;2023-10-08T07:31:16;91830.81;;;15.63
71807;BMP280;59655;42.590;23.364;2023-10-08T07:33:46;91843.88;;;15.59
71807;BMP280;59655;42.590;23.364;2023-10-08T07:36:11;91833.34;;;15.71
71807;BMP280;59655;42.590;23.364;2023-10-08T07:38:43;91820.41;;;15.68
71807;BMP280;59655;42.590;23.364;2023-10-08T07:41:10;91833.50;;;15.63
71807;BMP280;59655;42.590;23.364;2023-10-08T07:43:40;91821.94;;;15.61
71807;BMP280;59655;42.590;23.364;2023-10-08T07:46:09;91833.22;;;15.69
71807;BMP280;59655;42.590;23.364;2023-10-08T07:48:35;91829.84;;;15.78
71807;BMP280;59655;42.590;23.364;2023-10-08T07:51:01;91820.41;;;15.68
71807;BMP280;59655;42.590;23.364;2023-10-08T07:53:28;91823.78;;;15.68
71807;BMP280;59655;42.590;23.364;2023-10-08T07:56:04;91813.22;;;15.70
71807;BMP280;59655;42.590;23.364;2023-10-08T07:58:32;91819.00;;;15.67
71807;BMP280;59655;42.590;23.364;2023-10-08T08:01:03;91810.28;;;15.66
71807;BMP280;59655;42.590;23.364;2023-10-08T08:03:31;91808.28;;;15.67
71807;BMP280;59655;42.590;23.364;2023-10-08T08:05:57;91805.06;;;15.68
71807;BMP280;59655;42.590;23.364;2023-10-08T08:08:23;91803.94;;;15.81
71807;BMP280;59655;42.590;23.364;2023-10-08T08:10:52;91810.00;;;15.81
71807;BMP280;59655;42.590;23.364;2023-10-08T08:13:23;91806.63;;;15.81
71807;BMP280;59655;42.590;23.364;2023-10-08T08:15:54;91798.03;;;15.82
71807;BMP280;59655;42.590;23.364;2023-10-08T08:18:26;91802.53;;;15.80
71807;BMP280;59655;42.590;23.364;2023-10-08T08:20:56;91803.38;;;15.82
71807;BMP280;59655;42.590;23.364;2023-10-08T08:23:27;91798.91;;;15.85
71807;BMP280;59655;42.590;23.364;2023-10-08T08:25:54;91807.06;;;15.87
71807;BMP280;59655;42.590;23.364;2023-10-08T08:28:31;91800.00;;;16.21
71807;BMP280;59655;42.590;23.364;2023-10-08T08:31:02;91798.56;;;16.59
71807;BMP280;59655;42.590;23.364;2023-10-08T08:33:32;91792.63;;;16.70
71807;BMP280;59655;42.590;23.364;2023-10-08T08:36:17;91789.38;;;16.62
71807;BMP280;59655;42.590;23.364;2023-10-08T08:38:43;91789.22;;;16.69
71807;BMP280;59655;42.590;23.364;2023-10-08T08:41:08;91795.53;;;17.15
71807;BMP280;59655;42.590;23.364;2023-10-08T08:43:38;91793.13;;;17.19
71807;BMP280;59655;42.590;23.364;2023-10-08T08:46:10;91785.81;;;17.10
71807;BMP280;59655;42.590;23.364;2023-10-08T08:48:41;91779.50;;;17.05
71807;BMP280;59655;42.590;23.364;2023-10-08T08:51:06;91770.63;;;17.34
71807;BMP280;59655;42.590;23.364;2023-10-08T08:53:33;91782.22;;;17.27
71807;BMP280;59655;42.590;23.364;2023-10-08T08:55:59;91775.75;;;17.30
71807;BMP280;59655;42.590;23.364;2023-10-08T08:58:32;91775.78;;;17.41
71807;BMP280;59655;42.590;23.364;2023-10-08T09:01:09;91771.81;;;17.42
71807;BMP280;59655;42.590;23.364;2023-10-08T09:03:38;91776.03;;;17.45
71807;BMP280;59655;42.590;23.364;2023-10-08T09:06:04;91768.88;;;17.60
71807;BMP280;59655;42.590;23.364;2023-10-08T09:08:37;91768.25;;;17.71
71807;BMP280;59655;42.590;23.364;2023-10-08T09:11:07;91795.47;;;17.77
71807;BMP280;59655;42.590;23.364;2023-10-08T09:13:34;91770.34;;;17.94
71807;BMP280;59655;42.590;23.364;2023-10-08T09:16:21;91789.25;;;17.96
71807;BMP280;59655;42.590;23.364;2023-10-08T09:18:48;91780.06;;;18.32
71807;BMP280;59655;42.590;23.364;2023-10-08T09:21:18;91800.38;;;18.35
71807;BMP280;59655;42.590;23.364;2023-10-08T09:23:51;91777.00;;;18.38
71807;BMP280;59655;42.590;23.364;2023-10-08T09:26:18;91774.06;;;18.22
71807;BMP280;59655;42.590;23.364;2023-10-08T09:28:46;91763.09;;;18.18
71807;BMP280;59655;42.590;23.364;2023-10-08T09:31:13;91777.78;;;18.29
71807;BMP280;59655;42.590;23.364;2023-10-08T09:33:39;91767.66;;;18.27
71807;BMP280;59655;42.590;23.364;2023-10-08T09:36:05;91767.13;;;18.19
71807;BMP280;59655;42.590;23.364;2023-10-08T09:38:35;91767.31;;;18.33
71807;BMP280;59655;42.590;23.364;2023-10-08T09:41:02;91782.50;;;18.40
71807;BMP280;59655;42.590;23.364;2023-10-08T09:43:29;91770.16;;;18.47
71807;BMP280;59655;42.590;23.364;2023-10-08T09:46:00;91805.75;;;18.80
71807;BMP280;59655;42.590;23.364;2023-10-08T09:48:31;91758.75;;;18.70
71807;BMP280;59655;42.590;23.364;2023-10-08T09:51:02;91758.53;;;18.89
71807;BMP280;59655;42.590;23.364;2023-10-08T09:56:36;91754.97;;;18.98
71807;BMP280;59655;42.590;23.364;2023-10-08T09:59:02;91748.56;;;18.92
71807;BMP280;59655;42.590;23.364;2023-10-08T10:01:28;91754.75;;;18.82
71807;BMP280;59655;42.590;23.364;2023-10-08T10:03:57;91762.69;;;18.92
71807;BMP280;59655;42.590;23.364;2023-10-08T10:06:26;91745.53;;;18.97
71807;BMP280;59655;42.590;23.364;2023-10-08T10:08:51;91745.59;;;19.23
71807;BMP280;59655;42.590;23.364;2023-10-08T10:11:25;91740.47;;;19.15
71807;BMP280;59655;42.590;23.364;2023-10-08T10:13:58;91739.78;;;19.03
71807;BMP280;59655;42.590;23.364;2023-10-08T10:16:25;91740.44;;;19.27
71807;BMP280;59655;42.590;23.364;2023-10-08T10:18:55;91738.13;;;19.09
71807;BMP280;59655;42.590;23.364;2023-10-08T10:21:34;91757.88;;;19.38
71807;BMP280;59655;42.590;23.364;2023-10-08T10:24:00;91750.75;;;19.30
71807;BMP280;59655;42.590;23.364;2023-10-08T10:26:30;91727.84;;;19.55
71807;BMP280;59655;42.590;23.364;2023-10-08T10:31:50;91730.31;;;19.51
71807;BMP280;59655;42.590;23.364;2023-10-08T10:34:21;91733.03;;;19.51
71807;BMP280;59655;42.590;23.364;2023-10-08T10:36:48;91714.91;;;19.40
71807;BMP280;59655;42.590;23.364;2023-10-08T10:39:15;91715.56;;;19.52
71807;BMP280;59655;42.590;23.364;2023-10-08T10:42:00;91703.75;;;19.57
71807;BMP280;59655;42.590;23.364;2023-10-08T10:44:27;91699.41;;;19.89
71807;BMP280;59655;42.590;23.364;2023-10-08T10:46:55;91705.09;;;19.95
71807;BMP280;59655;42.590;23.364;2023-10-08T10:49:39;91715.78;;;20.07
71807;BMP280;59655;42.590;23.364;2023-10-08T10:52:19;91723.56;;;20.01
71807;BMP280;59655;42.590;23.364;2023-10-08T10:55:11;91710.00;;;19.99
71807;BMP280;59655;42.590;23.364;2023-10-08T10:57:44;91713.91;;;20.10
71807;BMP280;59655;42.590;23.364;2023-10-08T11:00:19;91697.63;;;20.07
71807;BMP280;59655;42.590;23.364;2023-10-08T11:03:01;91704.56;;;20.11
71807;BMP280;59655;42.590;23.364;2023-10-08T11:05:52;91694.53;;;19.99
71807;BMP280;59655;42.590;23.364;2023-10-08T11:08:20;91708.31;;;20.05
71807;BMP280;59655;42.590;23.364;2023-10-08T11:10:48;91690.81;;;20.46
71807;BMP280;59655;42.590;23.364;2023-10-08T11:13:18;91686.22;;;20.35
71807;BMP280;59655;42.590;23.364;2023-10-08T11:15:46;91698.09;;;20.29
71807;BMP280;59655;42.590;23.364;2023-10-08T11:18:21;91698.00;;;20.27
71807;BMP280;59655;42.590;23.364;2023-10-08T11:20:47;91686.19;;;20.21
71807;BMP280;59655;42.590;23.364;2023-10-08T11:26:03;91687.91;;;20.42
71807;BMP280;59655;42.590;23.364;2023-10-08T11:28:31;91684.13;;;20.47
71807;BMP280;59655;42.590;23.364;2023-10-08T11:31:20;91682.53;;;20.42
71807;BMP280;59655;42.590;23.364;2023-10-08T11:33:46;91684.63;;;20.43
71807;BMP280;59655;42.590;23.364;2023-10-08T11:36:20;91686.34;;;20.64
71807;BMP280;59655;42.590;23.364;2023-10-08T11:38:46;91660.94;;;20.97
71807;BMP280;59655;42.590;23.364;2023-10-08T11:41:16;91658.16;;;20.95
71807;BMP280;59655;42.590;23.364;2023-10-08T11:43:49;91671.53;;;21.07
71807;BMP280;59655;42.590;23.364;2023-10-08T11:46:24;91674.91;;;21.21
71807;BMP280;59655;42.590;23.364;2023-10-08T11:48:58;91672.06;;;21.33
71807;BMP280;59655;42.590;23.364;2023-10-08T11:51:29;91696.84;;;21.43
71807;BMP280;59655;42.590;23.364;2023-10-08T11:53:54;91683.66;;;21.35
71807;BMP280;59655;42.590;23.364;2023-10-08T11:56:21;91683.47;;;21.17
71807;BMP280;59655;42.590;23.364;2023-10-08T11:58:48;91681.69;;;21.22
71807;BMP280;59655;42.590;23.364;2023-10-08T12:01:14;91672.78;;;21.19
71807;BMP280;59655;42.590;23.364;2023-10-08T12:03:47;91676.91;;;21.07
71807;BMP280;59655;42.590;23.364;2023-10-08T12:06:15;91703.22;;;21.06
71807;BMP280;59655;42.590;23.364;2023-10-08T12:08:46;91679.16;;;20.96
71807;BMP280;59655;42.590;23.364;2023-10-08T12:11:15;91671.91;;;21.01
71807;BMP280;59655;42.590;23.364;2023-10-08T12:13:42;91682.44;;;21.09
71807;BMP280;59655;42.590;23.364;2023-10-08T12:16:14;91683.09;;;21.09
71807;BMP280;59655;42.590;23.364;2023-10-08T12:18:49;91703.00;;;21.02
71807;BMP280;59655;42.590;23.364;2023-10-08T12:21:21;91667.84;;;20.86
71807;BMP280;59655;42.590;23.364;2023-10-08T12:23:47;91687.94;;;20.83
71807;BMP280;59655;42.590;23.364;2023-10-08T12:26:13;91687.84;;;20.81
71807;BMP280;59655;42.590;23.364;2023-10-08T12:28:43;91683.72;;;20.80
71807;BMP280;59655;42.590;23.364;2023-10-08T12:31:16;91678.53;;;20.84
71807;BMP280;59655;42.590;23.364;2023-10-08T12:33:42;91703.91;;;20.93
71807;BMP280;59655;42.590;23.364;2023-10-08T12:36:11;91678.13;;;21.03
71807;BMP280;59655;42.590;23.364;2023-10-08T12:38:40;91688.97;;;21.19
71807;BMP280;59655;42.590;23.364;2023-10-08T12:41:07;91695.41;;;21.12
71807;BMP280;59655;42.590;23.364;2023-10-08T12:43:43;91676.19;;;21.34
71807;BMP280;59655;42.590;23.364;2023-10-08T12:46:17;91688.09;;;21.58
71807;BMP280;59655;42.590;23.364;2023-10-08T12:48:44;91706.38;;;21.60
71807;BMP280;59655;42.590;23.364;2023-10-08T12:51:13;91705.19;;;21.79
71807;BMP280;59655;42.590;23.364;2023-10-08T12:53:39;91679.72;;;22.13
71807;BMP280;59655;42.590;23.364;2023-10-08T12:56:09;91690.16;;;22.68
71807;BMP280;59655;42.590;23.364;2023-10-08T12:58:41;91681.56;;;23.08
71807;BMP280;59655;42.590;23.364;2023-10-08T13:01:09;91676.84;;;24.37
71807;BMP280;59655;42.590;23.364;2023-10-08T13:03:36;91687.53;;;25.37
71807;BMP280;59655;42.590;23.364;2023-10-08T13:06:07;91678.97;;;26.98
71807;BMP280;59655;42.590;23.364;2023-10-08T13:08:36;91683.34;;;25.34
71807;BMP280;59655;42.590;23.364;2023-10-08T13:11:02;91705.84;;;27.40
71807;BMP280;59655;42.590;23.364;2023-10-08T13:13:32;91679.69;;;27.61
71807;BMP280;59655;42.590;23.364;2023-10-08T13:15:59;91674.97;;;28.34
71807;BMP280;59655;42.590;23.364;2023-10-08T13:18:29;91705.06;;;26.80
71807;BMP280;59655;42.590;23.364;2023-10-08T13:20:54;91681.94;;;27.09
71807;BMP280;59655;42.590;23.364;2023-10-08T13:23:21;91664.22;;;26.80
71807;BMP280;59655;42.590;23.364;2023-10-08T13:25:50;91654.44;;;27.29
71807;BMP280;59655;42.590;23.364;2023-10-08T13:28:29;91658.44;;;27.25
71807;BMP280;59655;42.590;23.364;2023-10-08T13:30:54;91653.94;;;27.36
71807;BMP280;59655;42.590;23.364;2023-10-08T13:33:23;91647.94;;;25.78
71807;BMP280;59655;42.590;23.364;2023-10-08T13:35:49;91649.38;;;25.57
71807;BMP280;59655;42.590;23.364;2023-10-08T13:38:18;91636.31;;;25.51
71807;BMP280;59655;42.590;23.364;2023-10-08T13:40:48;91643.25;;;25.56
71807;BMP280;59655;42.590;23.364;2023-10-08T13:43:33;91640.25;;;24.80
71807;BMP280;59655;42.590;23.364;2023-10-08T13:46:06;91641.53;;;24.77
71807;BMP280;59655;42.590;23.364;2023-10-08T13:48:35;91645.00;;;24.58
71807;BMP280;59655;42.590;23.364;2023-10-08T13:51:02;91644.47;;;23.84
71807;BMP280;59655;42.590;23.364;2023-10-08T13:53:32;91643.47;;;23.93
71807;BMP280;59655;42.590;23.364;2023-10-08T13:55:59;91642.41;;;24.02
71807;BMP280;59655;42.590;23.364;2023-10-08T13:58:30;91649.00;;;23.97
71807;BMP280;59655;42.590;23.364;2023-10-08T14:00:58;91638.59;;;24.09
71807;BMP280;59655;42.590;23.364;2023-10-08T14:03:48;91639.00;;;23.46
71807;BMP280;59655;42.590;23.364;2023-10-08T14:06:14;91633.69;;;23.30
71807;BMP280;59655;42.590;23.364;2023-10-08T14:08:41;91659.13;;;23.05
71807;BMP280;59655;42.590;23.364;2023-10-08T14:11:09;91644.16;;;22.68
71807;BMP280;59655;42.590;23.364;2023-10-08T14:13:38;91635.09;;;22.62
71807;BMP280;59655;42.590;23.364;2023-10-08T14:16:07;91638.25;;;22.56
71807;BMP280;59655;42.590;23.364;2023-10-08T14:18:35;91648.88;;;22.68
71807;BMP280;59655;42.590;23.364;2023-10-08T14:21:08;91659.81;;;22.54
71807;BMP280;59655;42.590;23.364;2023-10-08T14:23:40;91660.09;;;22.44
71807;BMP280;59655;42.590;23.364;2023-10-08T14:26:09;91664.91;;;21.98
71807;BMP280;59655;42.590;23.364;2023-10-08T14:28:35;91668.19;;;21.97
71807;BMP280;59655;42.590;23.364;2023-10-08T14:31:19;91674.91;;;21.96
71807;BMP280;59655;42.590;23.364;2023-10-08T14:33:48;91670.16;;;21.65